Kelly, NC

1:39 PM EST on February 10, 2016 (GMT -0500)
Miller Place, White Lake | | Change Station
CLOSE
Current Station
Personal Weather Station
Location: Elizabethtown, NC
Elevation: 62 ft
Nearby Weather Stations

Elev 62 ft 34.63 °N, 78.50 °W | Updated 11 seconds ago

Partly Cloudy
Partly Cloudy
40.8 °F
Feels Like 41 °F
N
0.4
Wind Variable Wind from South
Gusts 2.5 mph

Today
High -- | Low -- °F
--% Chance of Precip.
Yesterday
High -- | Low -- °F
Precip. -- in
Pressure 29.91 in
Visibility 10.0 miles
Clouds Mostly Cloudy 5000 ft
Windchill 41 °F
Dew Point 16 °F
Humidity 37%
Rainfall 0.00 in
Snow Depth Not available.
7:04 AM 5:51 PM
Waxing Crescent, 6% visible
METAR KEYF 101835Z AUTO 27012G16KT 10SM BKN050 04/M08 A2991 RMK AO2 T00431076
Pressure 29.91 in
Visibility 10.0 miles
Clouds Mostly Cloudy 5000 ft
Windchill 41 °F
Dew Point 16 °F
Humidity 37%
Rainfall 0.00 in
Snow Depth Not available.
7:04 AM 5:51 PM
Waxing Crescent, 6% visible
METAR KEYF 101835Z AUTO 27012G16KT 10SM BKN050 04/M08 A2991 RMK AO2 T00431076

10-Day Weather Forecast

Almanac

Astronomy

Feb. 10, 2016 Rise Set
Actual Time
Civil Twilight
Nautical Twilight
Astronomical Twilight
Moon
Length of Visible Light
Length of Day
Tomorrow will be .
, % of the Moon is Illuminated

Today's Extremes

State Highs State Lows

Community

WunderPhotos

Upload Photos

1,891,914 photos uploaded!

WunderBlog® & News

Nearby

Air Quality

  Air Quality AQ Index Pollutant
Not available.

Snow Depth

Station Depth Elevation

Earthquake Activity

City Distance Mag. Time & Date
Minimum magnitude displayed is 2.5.

Coastal Water Temperatures

Place Temperature

Stations

Nearby Weather Stations

Station Location Temp. Windchill Dew Point Humidity Wind Precip. Elev Updated Type
                   

Watches & Warnings

There are currently no watches in effect.